Time;durP1;ratioP1;P1;durP2;ratioP2;P2;SDS_P1;SDS_P2;PMS_P1;PMS_P2;Temp;Humidity;BMP_temperature;BMP_pressure;BME280_temperature;BME280_humidity;BME280_pressure;Samples;Min_cycle;Max_cycle;Signal;HPM_P1;HPM_P2
2021/01/31 00:07:05;;;;;;;18.67;12.77;;;0.10;99.90;;;;;;5985312;23;21084;-82
2021/01/31 02:14:17;;;;;;;;;;;;;;;;;;;;;
2021/01/31 02:17:35;;;;;;;;;;;;;;;;;;;;;
2021/01/31 02:21:04;;;;;;;;;;;;;;;;;;;;;
2021/01/31 02:24:26;;;;;;;;;;;;;;;;;;;;;
2021/01/31 03:25:30;;;;;;;72.97;68.82;;;-1.90;99.90;;;;;;5944718;24;20180;-75
2021/01/31 03:27:56;;;;;;;77.20;72.80;;;-1.90;99.90;;;;;;6199589;23;20382;-75
2021/01/31 04:41:55;;;;;;;;;;;;;;;;;;;;;
2021/01/31 06:33:14;;;;;;;34.45;31.50;;;-2.90;99.90;;;;;;5952953;24;20581;-82
2021/01/31 07:37:02;;;;;;;30.45;24.35;;;-2.30;99.90;;;;;;6052234;23;20785;-83
2021/01/31 08:02:59;;;;;;;;;;;;;;;;;;;;;
2021/01/31 08:06:13;;;;;;;28.25;14.88;;;-1.70;99.90;;;;;;6007507;23;20500;-82
2021/01/31 08:09:12;;;;;;;21.92;12.05;;;-1.50;99.90;;;;;;6131942;23;20211;-81
2021/01/31 08:12:06;;;;;;;25.90;13.68;;;-1.50;99.90;;;;;;6045262;23;20266;-82
2021/01/31 08:15:29;;;;;;;;;;;;;;;;;;;;;
2021/01/31 08:19:01;;;;;;;;;;;;;;;;;;;;;
2021/01/31 08:22:34;;;;;;;;;;;;;;;;;;;;;
2021/01/31 08:25:47;;;;;;;22.13;12.80;;;-1.20;99.90;;;;;;6058557;23;20190;-82
2021/01/31 08:28:39;;;;;;;;;;;;;;;;;;;;;
2021/01/31 08:31:20;;;;;;;27.27;13.90;;;-1.20;99.90;;;;;;6226049;22;20193;-82
2021/01/31 08:34:17;;;;;;;21.75;11.10;;;-1.20;99.90;;;;;;6284996;22;20193;-82
2021/01/31 08:37:13;;;;;;;22.58;11.10;;;-1.00;99.90;;;;;;6266786;22;20177;-82
2021/01/31 08:40:14;;;;;;;20.42;12.32;;;-1.00;99.90;;;;;;6160397;23;20169;-82
2021/01/31 08:53:34;;;;;;;;;;;;;;;;;;;;;
2021/01/31 09:02:50;;;;;;;31.60;17.17;;;-0.40;99.90;;;;;;5920993;24;20180;-83
2021/01/31 09:14:53;;;;;;;;;;;;;;;;;;;;;
2021/01/31 09:24:39;;;;;;;;;;;;;;;;;;;;;
2021/01/31 09:44:01;;;;;;;20.60;10.67;;;0.60;99.90;;;;;;5935043;23;20426;-82
2021/01/31 09:50:40;;;;;;;;;;;;;;;;;;;;;
2021/01/31 09:58:04;;;;;;;;;;;;;;;;;;;;;
2021/01/31 10:10:31;;;;;;;18.00;9.93;;;1.30;95.50;;;;;;5941516;24;20226;-84
2021/01/31 10:22:51;;;;;;;;;;;;;;;;;;;;;
2021/01/31 10:38:04;;;;;;;15.83;8.90;;;3.10;57.70;;;;;;5843181;24;20543;-83
2021/01/31 10:40:56;;;;;;;;;;;;;;;;;;;;;
2021/01/31 10:50:12;;;;;;;14.17;8.57;;;4.30;30.40;;;;;;6221429;23;20482;-81
2021/01/31 10:52:45;;;;;;;15.73;8.20;;;4.30;31.10;;;;;;6110117;23;20480;-81
2021/01/31 10:55:47;;;;;;;;;;;;;;;;;;;;;
2021/01/31 10:58:32;;;;;;;16.03;9.80;;;4.30;31.10;;;;;;6248889;23;20419;-80
2021/01/31 11:01:09;;;;;;;15.27;8.83;;;4.60;27.80;;;;;;6255368;23;20415;-81
2021/01/31 11:29:05;;;;;;;17.27;8.50;;;4.20;26.80;;;;;;5933302;24;20445;-81
2021/01/31 11:35:38;;;;;;;;;;;;;;;;;;;;;
2021/01/31 11:38:27;;;;;;;9.43;5.27;;;4.00;30.80;;;;;;6103299;23;20427;-83
2021/01/31 11:41:10;;;;;;;;;;;;;;;;;;;;;
2021/01/31 11:44:04;;;;;;;;;;;;;;;;;;;;;
2021/01/31 11:50:20;;;;;;;10.53;5.80;;;4.40;33.10;;;;;;6071283;23;20457;-83
2021/01/31 11:53:42;;;;;;;;;;;;;;;;;;;;;
2021/01/31 11:56:16;;;;;;;9.70;5.80;;;4.00;30.20;;;;;;5997750;23;20418;-83
2021/01/31 11:59:07;;;;;;;7.87;4.80;;;4.00;34.10;;;;;;6153895;23;20622;-83
2021/01/31 12:01:37;;;;;;;10.00;5.30;;;4.30;32.20;;;;;;6241857;23;20746;-83
2021/01/31 12:04:12;;;;;;;10.97;5.07;;;4.10;29.10;;;;;;6256863;23;20404;-84
2021/01/31 12:06:53;;;;;;;9.63;5.20;;;4.10;30.90;;;;;;6255121;23;20462;-83
2021/01/31 12:12:23;;;;;;;9.73;5.47;;;4.10;30.80;;;;;;6256773;23;20473;-84
2021/01/31 12:14:50;;;;;;;9.53;5.53;;;4.10;30.90;;;;;;6256393;23;20407;-83
2021/01/31 12:17:53;;;;;;;8.70;5.23;;;3.80;31.20;;;;;;6247047;23;20486;-83
2021/01/31 12:20:37;;;;;;;11.77;6.47;;;3.60;34.40;;;;;;6242649;23;20465;-83
2021/01/31 12:23:10;;;;;;;9.53;4.73;;;3.50;33.80;;;;;;6254939;23;20415;-83
2021/01/31 12:25:42;;;;;;;14.73;5.00;;;3.60;34.30;;;;;;6246570;23;20400;-83
2021/01/31 12:28:13;;;;;;;9.47;5.80;;;3.60;35.50;;;;;;6256518;23;20400;-83
2021/01/31 12:30:53;;;;;;;;;;;;;;;;;;;;;
2021/01/31 12:33:33;;;;;;;;;;;;;;;;;;;;;
2021/01/31 12:36:12;;;;;;;9.83;5.70;;;4.90;28.70;;;;;;6278956;22;20472;-82
2021/01/31 12:38:46;;;;;;;9.10;5.80;;;5.70;23.80;;;;;;6277579;22;20480;-82
2021/01/31 12:41:16;;;;;;;11.43;6.60;;;5.70;21.10;;;;;;6287338;22;20415;-81
2021/01/31 12:43:42;;;;;;;9.00;5.27;;;5.50;20.20;;;;;;6276542;22;20407;-81
2021/01/31 12:46:45;;;;;;;;;;;;;;;;;;;;;
2021/01/31 12:49:21;;;;;;;11.10;6.27;;;6.10;21.30;;;;;;6125672;23;20469;-82
2021/01/31 12:52:25;;;;;;;;;;;;;;;;;;;;;
2021/01/31 12:55:05;;;;;;;10.73;5.60;;;6.80;16.90;;;;;;6263212;22;20408;-82
2021/01/31 12:58:03;;;;;;;11.40;5.50;;;6.90;14.20;;;;;;6276500;22;20424;-81
2021/01/31 13:01:01;;;;;;;9.47;5.20;;;6.70;14.00;;;;;;6094137;23;20476;-82
2021/01/31 13:03:35;;;;;;;10.60;5.63;;;6.90;13.60;;;;;;6133445;23;20904;-82
2021/01/31 13:06:36;;;;;;;;;;;;;;;;;;;;;
2021/01/31 13:09:33;;;;;;;11.00;6.00;;;7.60;11.70;;;;;;6275907;22;20463;-82
2021/01/31 13:12:36;;;;;;;11.50;5.77;;;7.70;9.40;;;;;;6286770;22;20450;-83
2021/01/31 13:15:46;;;;;;;11.33;6.57;;;7.90;8.90;;;;;;6269543;22;20412;-82
2021/01/31 13:18:27;;;;;;;;;;;;;;;;;;;;;
2021/01/31 13:21:03;;;;;;;11.53;6.23;;;8.70;6.00;;;;;;6286801;22;20397;-83
2021/01/31 13:23:47;;;;;;;11.20;7.00;;;8.50;6.40;;;;;;6274758;22;20462;-82
2021/01/31 13:26:15;;;;;;;11.10;6.00;;;7.70;6.60;;;;;;6287250;22;20405;-82
2021/01/31 13:29:05;;;;;;;11.23;6.53;;;7.30;9.00;;;;;;6276634;22;20432;-83
2021/01/31 13:31:43;;;;;;;;;;;;;;;;;;;;;
2021/01/31 13:34:14;;;;;;;9.60;5.83;;;6.30;12.40;;;;;;6275608;22;20431;-81
2021/01/31 13:36:40;;;;;;;8.80;5.60;;;6.30;14.50;;;;;;6274968;22;20431;-81
2021/01/31 13:42:20;;;;;;;9.53;5.27;;;5.70;17.10;;;;;;6221694;22;20461;-84
2021/01/31 13:44:47;;;;;;;10.63;5.37;;;5.30;20.60;;;;;;6123249;23;20426;-83
2021/01/31 13:47:14;;;;;;;9.03;4.53;;;4.80;24.30;;;;;;6223767;22;20406;-83
2021/01/31 13:49:40;;;;;;;10.87;5.93;;;4.70;27.40;;;;;;6276069;22;21011;-84
2021/01/31 13:52:06;;;;;;;13.40;6.80;;;4.60;28.10;;;;;;6285307;22;20407;-84
2021/01/31 13:54:56;;;;;;;13.43;5.83;;;4.70;30.20;;;;;;6274980;22;20399;-84
2021/01/31 14:01:29;;;;;;;;;;;;;;;;;;;;;
2021/01/31 14:04:02;;;;;;;12.20;6.40;;;4.00;40.40;;;;;;6286251;22;20417;-83
2021/01/31 14:06:33;;;;;;;9.83;5.23;;;4.00;45.90;;;;;;6286114;22;20407;-84
2021/01/31 14:08:59;;;;;;;11.70;6.37;;;3.70;45.30;;;;;;6276158;22;20414;-83
2021/01/31 14:11:27;;;;;;;12.63;6.40;;;3.50;45.90;;;;;;6275917;22;20402;-84
2021/01/31 14:14:01;;;;;;;14.30;8.37;;;3.40;47.80;;;;;;6276400;22;20430;-84
2021/01/31 14:16:29;;;;;;;12.40;6.63;;;3.40;54.30;;;;;;6286253;22;20409;-84
2021/01/31 14:19:00;;;;;;;14.50;7.33;;;3.50;59.30;;;;;;6288047;22;20403;-83
2021/01/31 14:21:38;;;;;;;8.87;4.97;;;3.40;56.30;;;;;;6277865;22;20921;-84
2021/01/31 14:24:08;;;;;;;14.07;8.00;;;3.20;59.10;;;;;;6287916;22;20403;-83
2021/01/31 14:26:34;;;;;;;14.17;8.07;;;3.20;62.30;;;;;;6288404;22;20403;-84
2021/01/31 14:29:01;;;;;;;15.17;7.33;;;3.30;62.20;;;;;;6278173;22;20430;-84
2021/01/31 14:31:38;;;;;;;13.30;7.33;;;3.40;63.40;;;;;;6278212;22;20410;-84
2021/01/31 14:34:24;;;;;;;14.13;7.43;;;3.40;62.80;;;;;;6288073;22;20460;-83
2021/01/31 14:36:52;;;;;;;11.23;7.33;;;3.50;56.90;;;;;;6275787;22;20866;-84
2021/01/31 14:39:20;;;;;;;11.23;6.07;;;3.40;56.30;;;;;;6288350;22;20409;-83
2021/01/31 14:41:51;;;;;;;13.60;7.63;;;3.40;59.50;;;;;;6277735;22;20398;-83
2021/01/31 14:44:18;;;;;;;14.93;8.73;;;3.40;58.50;;;;;;6288326;22;21236;-83
2021/01/31 14:46:49;;;;;;;14.87;8.37;;;3.10;60.40;;;;;;6278052;22;20399;-83
2021/01/31 14:49:28;;;;;;;;;;;;;;;;;;;;;
2021/01/31 14:52:01;;;;;;;15.10;8.77;;;3.00;65.70;;;;;;6275741;22;20509;-83
2021/01/31 14:54:28;;;;;;;15.67;8.20;;;3.00;63.90;;;;;;6278130;22;20406;-83
2021/01/31 14:56:56;;;;;;;15.63;9.07;;;2.80;65.40;;;;;;6277730;22;20456;-83
2021/01/31 14:59:39;;;;;;;13.77;8.23;;;2.90;69.10;;;;;;6278065;22;20409;-83
2021/01/31 15:02:17;;;;;;;17.00;9.40;;;2.60;69.20;;;;;;6278057;22;20403;-84
2021/01/31 15:04:49;;;;;;;14.90;8.77;;;2.60;71.60;;;;;;6287911;22;20414;-84
2021/01/31 15:07:24;;;;;;;15.03;7.13;;;2.50;74.40;;;;;;6276296;22;20885;-84
2021/01/31 15:09:55;;;;;;;16.93;8.93;;;2.40;77.20;;;;;;6277485;22;20422;-83
2021/01/31 15:12:24;;;;;;;12.87;7.60;;;2.30;81.70;;;;;;6288241;22;20486;-83
2021/01/31 15:15:01;;;;;;;;;;;;;;;;;;;;;
2021/01/31 15:17:37;;;;;;;;;;;;;;;;;;;;;
2021/01/31 15:20:12;;;;;;;15.30;8.53;;;2.10;91.90;;;;;;6276050;22;20886;-84
2021/01/31 15:22:54;;;;;;;12.20;7.10;;;2.20;91.80;;;;;;6276436;22;20468;-84
2021/01/31 15:25:22;;;;;;;14.20;8.30;;;2.10;92.10;;;;;;6287876;22;20431;-83
2021/01/31 15:27:52;;;;;;;14.57;8.37;;;2.10;93.80;;;;;;6277972;22;20438;-83
2021/01/31 15:30:35;;;;;;;;;;;;;;;;;;;;;
2021/01/31 15:33:03;;;;;;;16.80;8.13;;;2.20;95.00;;;;;;6276630;22;22336;-84
2021/01/31 15:35:40;;;;;;;;;;;;;;;;;;;;;
2021/01/31 15:38:07;;;;;;;11.97;7.70;;;2.20;97.20;;;;;;6254886;22;20414;-83
2021/01/31 15:40:34;;;;;;;13.67;8.30;;;2.20;98.70;;;;;;6277410;22;20405;-83
2021/01/31 15:43:04;;;;;;;15.83;9.47;;;2.20;99.90;;;;;;6277174;22;20401;-83
2021/01/31 15:45:33;;;;;;;17.07;9.20;;;2.20;99.90;;;;;;6277747;22;20395;-83
2021/01/31 15:48:01;;;;;;;17.17;8.90;;;2.20;99.90;;;;;;6277652;22;20395;-84
2021/01/31 15:50:29;;;;;;;15.10;9.53;;;2.20;99.90;;;;;;6277300;22;20431;-83
2021/01/31 15:52:55;;;;;;;15.98;8.77;;;2.30;99.90;;;;;;6276219;22;20440;-84
2021/01/31 15:55:29;;;;;;;14.80;7.80;;;2.10;99.90;;;;;;6276953;22;20157;-82
2021/01/31 15:58:25;;;;;;;15.40;9.33;;;2.10;99.80;;;;;;6277522;22;20406;-84
2021/01/31 16:00:57;;;;;;;11.67;7.20;;;2.10;99.90;;;;;;6266764;22;20745;-84
2021/01/31 16:03:51;;;;;;;15.83;9.13;;;2.20;99.80;;;;;;6277157;22;20398;-85
2021/01/31 16:06:24;;;;;;;15.77;8.40;;;2.10;98.80;;;;;;6277246;22;20434;-84
2021/01/31 16:09:35;;;;;;;17.53;9.43;;;2.20;98.60;;;;;;6285711;22;20895;-85
2021/01/31 16:15:48;;;;;;;13.77;6.27;;;2.10;99.10;;;;;;6068559;23;20416;-83
2021/01/31 16:18:27;;;;;;;;;;;;;;;;;;;;;
2021/01/31 16:25:02;;;;;;;18.10;9.87;;;2.00;99.90;;;;;;6179731;22;20411;-83
2021/01/31 16:27:29;;;;;;;14.60;8.00;;;2.10;99.90;;;;;;6287255;22;20571;-83
2021/01/31 16:29:59;;;;;;;19.03;9.47;;;2.00;99.90;;;;;;6287428;22;20488;-82
2021/01/31 16:32:57;;;;;;;15.70;9.53;;;2.00;99.90;;;;;;6287171;22;20528;-83
2021/01/31 16:35:25;;;;;;;23.30;10.70;;;2.00;99.90;;;;;;6217416;22;20790;-83
2021/01/31 16:37:52;;;;;;;16.07;8.70;;;2.10;99.90;;;;;;6271400;22;20399;-81
2021/01/31 16:40:33;;;;;;;;;;;;;;;;;;;;;
2021/01/31 16:43:01;;;;;;;19.30;11.13;;;2.00;99.90;;;;;;6280838;22;20403;-82
2021/01/31 16:45:42;;;;;;;;;;;;;;;;;;;;;
2021/01/31 16:48:24;;;;;;;19.20;11.30;;;2.10;99.90;;;;;;6281024;22;20402;-82
2021/01/31 16:51:08;;;;;;;19.20;12.00;;;2.00;99.90;;;;;;6285341;22;20427;-83
2021/01/31 16:53:37;;;;;;;16.20;9.03;;;2.00;99.90;;;;;;6256524;22;20406;-83
2021/01/31 16:56:27;;;;;;;15.50;8.37;;;2.00;99.90;;;;;;6285194;22;20490;-83
2021/01/31 16:58:58;;;;;;;16.47;9.70;;;2.00;99.90;;;;;;6285069;22;20436;-84
2021/01/31 17:01:34;;;;;;;15.77;9.70;;;2.00;99.90;;;;;;6275132;22;20403;-82
2021/01/31 17:04:00;;;;;;;15.87;7.93;;;2.10;99.90;;;;;;6274659;22;20422;-82
2021/01/31 17:06:28;;;;;;;13.77;9.53;;;2.00;99.90;;;;;;6274894;22;20406;-82
2021/01/31 17:08:56;;;;;;;13.77;8.63;;;2.00;99.90;;;;;;6283427;22;20410;-82
2021/01/31 17:11:33;;;;;;;16.60;8.87;;;2.00;99.90;;;;;;6274001;22;20434;-82
2021/01/31 17:14:00;;;;;;;18.63;11.30;;;2.00;99.90;;;;;;6274953;22;20398;-82
2021/01/31 17:16:41;;;;;;;18.70;10.43;;;2.00;99.90;;;;;;6284598;22;20411;-82
2021/01/31 17:19:15;;;;;;;20.67;12.30;;;2.00;99.90;;;;;;6273937;22;20409;-81
2021/01/31 17:21:51;;;;;;;17.10;10.47;;;2.00;99.90;;;;;;6273385;22;20481;-82
2021/01/31 17:24:18;;;;;;;20.60;11.60;;;2.00;99.90;;;;;;6285234;22;20445;-82
2021/01/31 17:26:49;;;;;;;22.07;14.30;;;2.10;99.90;;;;;;6274382;22;20402;-81
2021/01/31 17:29:18;;;;;;;20.20;12.93;;;2.10;99.90;;;;;;6274409;22;20833;-82
2021/01/31 17:31:51;;;;;;;21.27;12.63;;;2.10;99.90;;;;;;6284469;22;21107;-82
2021/01/31 17:34:18;;;;;;;22.57;12.87;;;2.10;99.90;;;;;;6274306;22;20442;-83
2021/01/31 17:36:45;;;;;;;21.17;12.60;;;2.00;99.90;;;;;;6274446;22;20391;-82
2021/01/31 17:39:13;;;;;;;27.57;16.27;;;2.10;99.90;;;;;;6276738;22;20402;-82
2021/01/31 17:41:39;;;;;;;25.33;16.63;;;2.10;99.90;;;;;;6276488;22;20402;-83
2021/01/31 17:44:15;;;;;;;20.93;13.33;;;2.10;99.90;;;;;;6276414;22;20395;-81
2021/01/31 17:46:45;;;;;;;19.07;12.33;;;2.10;99.90;;;;;;6276883;22;20398;-82
2021/01/31 17:49:12;;;;;;;20.37;13.13;;;2.00;99.90;;;;;;6276570;22;20942;-82
2021/01/31 17:51:40;;;;;;;20.90;12.40;;;2.10;99.90;;;;;;6284918;22;20406;-82
2021/01/31 17:54:25;;;;;;;;;;;;;;;;;;;;;
2021/01/31 18:01:11;;;;;;;;;;;;;;;;;;;;;
2021/01/31 18:03:51;;;;;;;19.77;10.97;;;2.00;99.90;;;;;;6161911;22;20898;-82
2021/01/31 18:06:19;;;;;;;16.50;9.90;;;2.00;99.90;;;;;;6277721;22;20889;-82
2021/01/31 18:08:57;;;;;;;20.70;11.90;;;2.00;99.90;;;;;;6277068;22;20975;-82
2021/01/31 18:11:53;;;;;;;20.33;11.50;;;2.00;99.90;;;;;;6288423;22;20937;-83
2021/01/31 18:14:37;;;;;;;18.87;9.90;;;2.00;99.90;;;;;;6267979;22;20418;-82
2021/01/31 18:17:09;;;;;;;20.70;13.33;;;2.00;99.90;;;;;;6277977;22;20395;-82
2021/01/31 18:19:36;;;;;;;21.20;12.27;;;1.90;99.90;;;;;;6278019;22;20621;-83
2021/01/31 18:22:25;;;;;;;21.30;12.03;;;1.90;99.90;;;;;;6276925;22;20402;-82
2021/01/31 18:24:54;;;;;;;23.50;12.70;;;2.00;99.90;;;;;;6272578;22;20410;-82
2021/01/31 18:27:34;;;;;;;24.13;13.60;;;1.90;99.90;;;;;;6288623;22;20399;-82
2021/01/31 18:30:00;;;;;;;17.83;12.10;;;1.90;99.90;;;;;;6277771;22;20953;-83
2021/01/31 18:35:11;;;;;;;20.20;11.13;;;1.90;99.90;;;;;;6223501;22;20449;-82
2021/01/31 18:37:45;;;;;;;20.77;10.30;;;1.90;99.90;;;;;;6276158;22;20893;-82
2021/01/31 18:40:14;;;;;;;27.70;14.60;;;2.00;99.90;;;;;;6278309;22;20501;-82
2021/01/31 18:42:41;;;;;;;21.77;13.00;;;1.90;99.90;;;;;;6287839;22;20417;-83
2021/01/31 18:45:14;;;;;;;24.17;13.67;;;2.00;99.90;;;;;;6288533;22;20740;-82
2021/01/31 18:47:53;;;;;;;;;;;;;;;;;;;;;
2021/01/31 18:50:29;;;;;;;22.20;13.03;;;2.00;99.90;;;;;;6285086;22;20776;-82
2021/01/31 18:53:11;;;;;;;;;;;;;;;;;;;;;
2021/01/31 18:55:48;;;;;;;27.20;15.83;;;1.90;99.90;;;;;;6279722;22;20411;-83
2021/01/31 18:58:34;;;;;;;23.73;15.00;;;2.00;99.90;;;;;;6278118;22;20394;-83
2021/01/31 19:01:05;;;;;;;22.63;14.37;;;2.00;99.90;;;;;;6231923;22;20913;-83
2021/01/31 19:03:38;;;;;;;25.63;14.33;;;1.90;99.90;;;;;;6277626;22;20831;-83
2021/01/31 19:06:04;;;;;;;24.63;11.70;;;1.90;99.90;;;;;;6278111;22;20395;-82
2021/01/31 19:08:42;;;;;;;29.30;13.53;;;1.90;99.90;;;;;;6286922;22;20413;-83
2021/01/31 19:11:15;;;;;;;25.27;17.10;;;2.00;99.90;;;;;;6288319;22;20803;-82
2021/01/31 19:13:46;;;;;;;22.73;12.63;;;2.00;99.90;;;;;;6288026;22;20413;-83
2021/01/31 19:16:12;;;;;;;23.87;13.97;;;2.10;99.90;;;;;;6288408;22;20399;-82
2021/01/31 19:18:44;;;;;;;21.40;13.40;;;2.10;99.90;;;;;;6277954;22;20399;-83
2021/01/31 19:21:17;;;;;;;26.43;15.20;;;2.00;99.90;;;;;;6288273;22;20410;-83
2021/01/31 19:23:47;;;;;;;29.10;16.30;;;2.10;99.90;;;;;;6275823;22;20433;-82
2021/01/31 19:26:14;;;;;;;19.47;12.70;;;2.00;99.90;;;;;;6277751;22;20430;-84
2021/01/31 19:28:40;;;;;;;31.53;15.50;;;2.00;99.90;;;;;;6277444;22;20909;-83
2021/01/31 19:31:29;;;;;;;22.00;13.70;;;2.10;99.90;;;;;;6277330;22;20438;-84
2021/01/31 19:34:26;;;;;;;;;;;;;;;;;;;;;
2021/01/31 19:36:55;;;;;;;24.87;14.40;;;2.20;99.90;;;;;;6275468;22;20436;-83
2021/01/31 19:39:23;;;;;;;24.30;13.33;;;2.10;99.90;;;;;;6288008;22;20756;-83
2021/01/31 19:46:19;;;;;;;;;;;;;;;;;;;;;
2021/01/31 19:52:03;;;;;;;21.53;13.77;;;2.10;99.90;;;;;;6033709;23;20263;-83
2021/01/31 19:54:58;;;;;;;24.40;13.90;;;2.10;99.90;;;;;;6037523;23;20477;-83
2021/01/31 19:57:53;;;;;;;;;;;;;;;;;;;;;
2021/01/31 20:03:42;;;;;;;26.07;15.00;;;2.10;99.90;;;;;;6075865;23;20540;-83
2021/01/31 20:06:14;;;;;;;28.63;15.77;;;2.10;99.90;;;;;;6124275;23;20410;-83
2021/01/31 20:09:39;;;;;;;19.00;11.60;;;2.10;99.90;;;;;;6123129;23;20407;-84
2021/01/31 20:13:03;;;;;;;;;;;;;;;;;;;;;
2021/01/31 20:19:50;;;;;;;25.30;13.03;;;2.10;99.90;;;;;;6134406;23;20426;-83
2021/01/31 20:22:43;;;;;;;22.00;14.30;;;2.10;99.90;;;;;;6179436;23;20483;-84
2021/01/31 20:29:16;;;;;;;25.93;15.20;;;2.10;99.90;;;;;;5962827;23;21027;-83
2021/01/31 20:31:51;;;;;;;26.20;15.60;;;2.10;99.90;;;;;;6066678;23;20448;-83
2021/01/31 20:38:18;;;;;;;;;;;;;;;;;;;;;
2021/01/31 20:41:30;;;;;;;;;;;;;;;;;;;;;
2021/01/31 20:59:23;;;;;;;;;;;;;;;;;;;;;
2021/01/31 21:01:56;;;;;;;30.93;20.73;;;2.00;99.90;;;;;;6138062;23;20174;-82
2021/01/31 21:04:24;;;;;;;32.00;20.13;;;1.90;99.90;;;;;;6237299;22;20419;-81
2021/01/31 21:06:50;;;;;;;32.83;21.67;;;1.90;99.90;;;;;;6275201;22;20402;-81
2021/01/31 21:09:16;;;;;;;28.60;19.40;;;1.90;99.90;;;;;;6276754;22;20399;-81
2021/01/31 21:11:43;;;;;;;27.77;20.10;;;1.90;99.90;;;;;;6276261;22;20465;-81
2021/01/31 21:14:09;;;;;;;31.57;20.17;;;2.00;99.90;;;;;;6276353;22;20453;-81
2021/01/31 21:16:37;;;;;;;32.50;23.60;;;1.80;99.90;;;;;;6286244;22;20471;-80
2021/01/31 21:19:17;;;;;;;;;;;;;;;;;;;;;
2021/01/31 21:21:44;;;;;;;28.73;21.20;;;1.90;99.90;;;;;;6281105;22;20407;-81
2021/01/31 21:24:10;;;;;;;38.33;26.47;;;1.80;99.90;;;;;;6276822;22;20396;-81
2021/01/31 21:26:37;;;;;;;31.47;23.40;;;1.90;99.90;;;;;;6276527;22;20509;-82
2021/01/31 21:29:05;;;;;;;38.47;31.67;;;1.90;99.90;;;;;;6286166;22;20407;-83
2021/01/31 21:31:53;;;;;;;;;;;;;;;;;;;;;
2021/01/31 21:35:09;;;;;;;;;;;;;;;;;;;;;
2021/01/31 21:50:45;;;;;;;;;;;;;;;;;;;;;
2021/01/31 21:56:53;;;;;;;;;;;;;;;;;;;;;
2021/01/31 21:59:49;;;;;;;43.33;39.67;;;1.80;99.90;;;;;;6187497;22;20407;-83
2021/01/31 22:03:06;;;;;;;47.20;42.80;;;1.80;99.90;;;;;;6286123;22;20414;-83
2021/01/31 22:06:30;;;;;;;;;;;;;;;;;;;;;
2021/01/31 22:12:44;;;;;;;53.33;48.63;;;1.80;99.90;;;;;;6075174;23;20412;-83
2021/01/31 22:24:28;;;;;;;;;;;;;;;;;;;;;
2021/01/31 22:26:58;;;;;;;50.00;45.57;;;1.90;99.90;;;;;;6082086;23;20856;-83
2021/01/31 22:29:45;;;;;;;56.93;51.97;;;1.80;99.90;;;;;;6182381;23;20441;-83
2021/01/31 22:32:47;;;;;;;56.87;51.30;;;1.70;99.90;;;;;;6182172;23;20440;-83
2021/01/31 22:35:41;;;;;;;51.93;47.10;;;1.80;99.90;;;;;;6181354;23;20771;-83
2021/01/31 22:38:22;;;;;;;57.80;52.50;;;1.90;99.90;;;;;;6073086;23;20436;-83
2021/01/31 22:44:47;;;;;;;;;;;;;;;;;;;;;
2021/01/31 22:47:38;;;;;;;;;;;;;;;;;;;;;
2021/01/31 22:51:09;;;;;;;;;;;;;;;;;;;;;
2021/01/31 22:53:43;;;;;;;56.83;51.87;;;1.80;99.90;;;;;;5978145;24;20763;-84
2021/01/31 22:56:58;;;;;;;62.77;57.70;;;1.90;99.90;;;;;;5990795;24;20415;-83
2021/01/31 23:03:36;;;;;;;;;;;;;;;;;;;;;
2021/01/31 23:09:57;;;;;;;;;;;;;;;;;;;;;
2021/01/31 23:19:54;;;;;;;69.30;63.87;;;1.90;99.90;;;;;;6126942;23;20414;-83
2021/01/31 23:22:52;;;;;;;64.77;59.57;;;1.90;99.90;;;;;;6115292;23;20414;-83
2021/01/31 23:25:35;;;;;;;68.90;63.70;;;2.00;99.90;;;;;;6017858;23;20417;-83
2021/01/31 23:31:49;;;;;;;65.83;61.20;;;1.90;99.90;;;;;;6144338;23;20445;-83
2021/01/31 23:34:42;;;;;;;62.87;58.63;;;2.00;99.90;;;;;;6173806;23;20453;-83
2021/01/31 23:37:30;;;;;;;;;;;;;;;;;;;;;
2021/01/31 23:40:25;;;;;;;;;;;;;;;;;;;;;
2021/01/31 23:43:10;;;;;;;66.07;61.27;;;2.00;99.90;;;;;;6182961;23;20408;-83
2021/01/31 23:46:12;;;;;;;;;;;;;;;;;;;;;
2021/01/31 23:49:18;;;;;;;;;;;;;;;;;;;;;
2021/01/31 23:52:14;;;;;;;66.10;61.67;;;2.10;99.90;;;;;;6191568;23;20445;-82
2021/01/31 23:54:55;;;;;;;68.30;63.20;;;2.00;99.90;;;;;;6153544;23;20422;-83
2021/01/31 23:57:35;;;;;;;;;;;;;;;;;;;;;
